createdAt,value
2023-01-13T00:01:31.692Z,8.17
2023-01-13T00:03:58.756Z,8.30
2023-01-13T00:06:26.619Z,8.60
2023-01-13T00:08:53.932Z,7.30
2023-01-13T00:11:24.324Z,7.93
2023-01-13T00:13:57.394Z,7.93
2023-01-13T00:16:24.273Z,7.80
2023-01-13T00:18:53.911Z,8.47
2023-01-13T00:21:25.136Z,8.50
2023-01-13T00:23:54.099Z,8.60
2023-01-13T00:26:26.928Z,8.17
2023-01-13T00:28:58.713Z,9.23
2023-01-13T00:34:09.791Z,8.00
2023-01-13T00:36:39.314Z,7.47
2023-01-13T00:39:09.141Z,6.50
2023-01-13T00:41:55.976Z,6.07
2023-01-13T00:44:22.840Z,5.80
2023-01-13T00:46:49.764Z,5.80
2023-01-13T00:49:19.748Z,5.20
2023-01-13T00:51:46.657Z,5.37
2023-01-13T00:54:16.827Z,5.30
2023-01-13T00:56:43.641Z,5.53
2023-01-13T00:59:12.754Z,5.37
2023-01-13T01:01:40.846Z,5.90
2023-01-13T01:04:09.324Z,5.10
2023-01-13T01:06:36.304Z,6.93
2023-01-13T01:09:04.865Z,6.00
2023-01-13T01:11:33.799Z,6.07
2023-01-13T01:14:04.103Z,5.53
2023-01-13T01:16:32.886Z,5.27
2023-01-13T01:19:01.151Z,5.80
2023-01-13T01:21:38.419Z,5.60
2023-01-13T01:24:05.825Z,6.43
2023-01-13T01:26:38.840Z,5.70
2023-01-13T01:29:05.901Z,6.30
2023-01-13T01:31:33.768Z,6.10
2023-01-13T01:34:04.974Z,6.20
2023-01-13T01:36:36.460Z,5.83
2023-01-13T01:39:04.142Z,6.60
2023-01-13T01:41:35.930Z,6.50
2023-01-13T01:44:26.467Z,5.60
2023-01-13T01:46:54.309Z,5.70
2023-01-13T01:49:33.622Z,5.47
2023-01-13T01:52:06.695Z,5.40
2023-01-13T01:55:06.614Z,5.77
2023-01-13T01:57:46.821Z,5.70
2023-01-13T02:00:14.382Z,5.73
2023-01-13T02:02:43.992Z,5.70
2023-01-13T02:05:11.728Z,5.30
2023-01-13T02:07:41.139Z,5.00
2023-01-13T02:10:12.657Z,5.90
2023-01-13T02:12:41.024Z,4.90
2023-01-13T02:15:17.120Z,5.00
2023-01-13T02:18:05.757Z,4.50
2023-01-13T02:20:51.510Z,5.20
2023-01-13T02:23:42.980Z,4.73
2023-01-13T02:26:41.919Z,4.40
2023-01-13T02:30:05.358Z,4.80
2023-01-13T02:33:10.388Z,5.10
2023-01-13T02:35:40.853Z,4.90
2023-01-13T02:38:11.259Z,5.33
2023-01-13T02:40:49.162Z,5.27
2023-01-13T02:43:57.963Z,5.20
2023-01-13T02:46:36.495Z,5.50
2023-01-13T02:49:08.644Z,5.67
2023-01-13T02:51:38.744Z,5.80
2023-01-13T02:54:13.858Z,5.20
2023-01-13T02:56:44.711Z,5.60
2023-01-13T02:59:12.696Z,5.80
2023-01-13T03:01:40.653Z,5.67
2023-01-13T03:04:16.108Z,5.90
2023-01-13T03:06:54.530Z,5.27
2023-01-13T03:09:38.699Z,6.30
2023-01-13T03:12:33.387Z,5.90
2023-01-13T03:15:06.492Z,5.57
2023-01-13T03:17:53.551Z,5.27
2023-01-13T03:20:27.616Z,5.70
2023-01-13T03:23:07.817Z,5.80
2023-01-13T03:25:42.918Z,5.60
2023-01-13T03:28:26.403Z,5.50
2023-01-13T03:31:00.714Z,5.17
2023-01-13T03:33:34.243Z,5.57
2023-01-13T03:36:05.750Z,5.60
2023-01-13T03:38:43.938Z,6.40
2023-01-13T03:41:19.063Z,5.57
2023-01-13T03:44:10.707Z,5.23
2023-01-13T03:46:49.697Z,5.20
2023-01-13T03:49:21.377Z,5.50
2023-01-13T03:51:59.596Z,5.90
2023-01-13T03:54:39.562Z,5.53
2023-01-13T03:57:11.704Z,5.30
2023-01-13T03:59:42.563Z,5.03
2023-01-13T04:02:56.970Z,5.03
2023-01-13T04:05:24.907Z,5.30
2023-01-13T04:08:25.682Z,5.20
2023-01-13T04:11:07.981Z,6.00
2023-01-13T04:13:38.486Z,6.20
2023-01-13T04:16:09.753Z,6.17
2023-01-13T04:18:38.474Z,5.90
2023-01-13T04:21:06.163Z,5.70
2023-01-13T04:23:33.372Z,5.90
2023-01-13T04:26:02.302Z,6.40
2023-01-13T04:28:29.309Z,7.23
2023-01-13T04:30:56.080Z,8.40
2023-01-13T04:33:23.291Z,8.23
2023-01-13T04:35:50.164Z,7.30
2023-01-13T04:38:18.905Z,7.90
2023-01-13T04:40:46.116Z,7.70
2023-01-13T04:43:12.875Z,7.37
2023-01-13T04:45:39.859Z,7.50
2023-01-13T04:48:09.445Z,8.00
2023-01-13T04:50:48.236Z,7.97
2023-01-13T04:53:17.311Z,7.37
2023-01-13T04:55:45.025Z,8.40
2023-01-13T04:58:14.844Z,8.50
2023-01-13T05:00:42.028Z,8.10
2023-01-13T05:03:08.779Z,8.33
2023-01-13T05:05:44.027Z,8.30
2023-01-13T05:08:13.243Z,8.70
2023-01-13T05:10:39.966Z,8.50
2023-01-13T05:13:25.926Z,8.70
2023-01-13T05:16:11.470Z,8.83
2023-01-13T05:18:38.204Z,8.23
2023-01-13T05:21:25.374Z,8.93
2023-01-13T05:24:10.517Z,8.67
2023-01-13T05:26:37.221Z,8.20
2023-01-13T05:29:04.373Z,7.70
2023-01-13T05:31:31.214Z,8.57
2023-01-13T05:33:57.850Z,8.30
2023-01-13T05:36:24.576Z,6.50
2023-01-13T05:38:52.318Z,5.00
2023-01-13T05:41:37.503Z,5.30
2023-01-13T05:44:04.357Z,4.93
2023-01-13T05:46:31.083Z,4.40
2023-01-13T05:48:58.735Z,3.50
2023-01-13T05:51:26.420Z,3.00
2023-01-13T05:53:53.189Z,2.70
2023-01-13T05:56:19.891Z,2.30
2023-01-13T05:58:46.594Z,2.13
2023-01-13T06:01:13.323Z,1.70
2023-01-13T06:03:40.021Z,1.70
2023-01-13T06:06:08.818Z,1.70
2023-01-13T06:08:36.994Z,1.60
2023-01-13T06:11:05.457Z,1.90
2023-01-13T06:13:32.104Z,1.73
2023-01-13T06:15:59.652Z,1.70
2023-01-13T06:18:27.101Z,1.70
2023-01-13T06:20:53.812Z,1.60
2023-01-13T06:23:20.655Z,1.57
2023-01-13T06:26:05.328Z,1.73
2023-01-13T06:28:33.302Z,1.60
2023-01-13T06:31:03.620Z,1.40
2023-01-13T06:33:40.525Z,1.57
2023-01-13T06:36:13.694Z,1.50
2023-01-13T06:38:44.342Z,1.80
2023-01-13T06:41:10.989Z,1.80
2023-01-13T06:43:39.238Z,2.33
2023-01-13T06:46:06.059Z,2.60
2023-01-13T06:48:35.225Z,3.40
2023-01-13T06:51:03.548Z,3.47
2023-01-13T06:53:30.300Z,2.90
2023-01-13T06:55:56.942Z,3.17
2023-01-13T06:58:23.593Z,3.60
2023-01-13T07:00:51.396Z,3.83
2023-01-13T07:03:19.411Z,3.50
2023-01-13T07:05:52.788Z,4.10
2023-01-13T07:08:19.458Z,4.30
2023-01-13T07:10:46.194Z,5.13
2023-01-13T07:13:31.390Z,4.13
2023-01-13T07:16:00.881Z,4.30
2023-01-13T07:18:31.396Z,4.10
2023-01-13T07:21:03.981Z,4.10
2023-01-13T07:23:33.233Z,3.73
2023-01-13T07:26:00.495Z,4.10
2023-01-13T07:28:29.091Z,4.50
2023-01-13T07:30:56.300Z,5.10
2023-01-13T07:33:23.460Z,5.30
2023-01-13T07:35:57.757Z,5.70
2023-01-13T07:38:25.529Z,6.20
2023-01-13T07:40:52.251Z,7.10
2023-01-13T07:43:34.433Z,7.63
2023-01-13T07:46:04.517Z,8.50
2023-01-13T07:48:33.221Z,9.70
2023-01-13T07:51:05.747Z,9.77
2023-01-13T07:53:32.672Z,11.10
2023-01-13T07:56:00.212Z,10.40
2023-01-13T07:58:28.456Z,10.60
2023-01-13T08:00:55.674Z,10.60
2023-01-13T08:03:23.313Z,10.70
2023-01-13T08:05:50.561Z,10.80
2023-01-13T08:08:17.557Z,10.80
2023-01-13T08:10:45.006Z,10.60
2023-01-13T08:13:18.311Z,11.17
2023-01-13T08:15:46.320Z,11.20
2023-01-13T08:18:13.485Z,11.10
2023-01-13T08:20:40.563Z,11.87
2023-01-13T08:23:07.661Z,11.90
2023-01-13T08:25:34.814Z,11.17
2023-01-13T08:28:01.591Z,11.70
2023-01-13T08:30:28.766Z,11.83
2023-01-13T08:32:55.490Z,12.50
2023-01-13T08:35:23.032Z,12.50
2023-01-13T08:37:50.673Z,12.30
2023-01-13T08:40:19.396Z,12.80
2023-01-13T08:42:48.528Z,12.60
2023-01-13T08:45:15.781Z,13.17
2023-01-13T08:47:42.504Z,12.80
2023-01-13T08:50:09.934Z,13.33
2023-01-13T08:52:36.635Z,12.97
2023-01-13T08:55:03.790Z,12.80
2023-01-13T08:57:30.534Z,12.57
2023-01-13T08:59:57.229Z,12.70
2023-01-13T09:02:25.121Z,13.20
2023-01-13T09:04:52.730Z,13.60
2023-01-13T09:07:19.529Z,13.20
2023-01-13T09:09:46.429Z,13.40
2023-01-13T09:12:33.971Z,13.90
2023-01-13T09:15:01.338Z,13.87
2023-01-13T09:17:28.091Z,13.37
2023-01-13T09:19:54.750Z,13.20
2023-01-13T09:22:21.867Z,13.10
2023-01-13T09:24:48.522Z,14.00
2023-01-13T09:27:15.825Z,12.97
2023-01-13T09:29:43.185Z,12.80
2023-01-13T09:32:14.623Z,13.80
2023-01-13T09:34:59.846Z,13.07
2023-01-13T09:37:36.010Z,13.10
2023-01-13T09:40:06.001Z,12.80
2023-01-13T09:43:13.418Z,13.60
2023-01-13T09:45:42.918Z,13.80
2023-01-13T09:48:30.416Z,13.47
2023-01-13T09:50:59.882Z,13.93
2023-01-13T09:53:32.305Z,13.83
2023-01-13T09:55:59.054Z,15.13
2023-01-13T09:58:25.965Z,13.50
2023-01-13T10:00:55.446Z,13.60
2023-01-13T10:03:28.788Z,14.10
2023-01-13T10:06:11.664Z,14.00
2023-01-13T10:08:40.134Z,13.73
2023-01-13T10:11:50.987Z,13.90
2023-01-13T10:14:39.972Z,13.70
2023-01-13T10:17:28.216Z,13.87
2023-01-13T10:20:07.251Z,14.30
2023-01-13T10:22:52.446Z,14.03
2023-01-13T10:25:35.816Z,14.13
2023-01-13T10:28:09.688Z,14.10
2023-01-13T10:30:40.135Z,14.80
2023-01-13T10:33:15.116Z,13.90
2023-01-13T10:35:53.988Z,14.10
2023-01-13T10:38:26.715Z,13.60
2023-01-13T10:40:56.418Z,15.47
2023-01-13T10:43:24.016Z,14.30
2023-01-13T10:46:02.056Z,14.20
2023-01-13T10:48:59.322Z,14.97
2023-01-13T10:51:25.964Z,14.07
2023-01-13T10:53:55.944Z,13.83
2023-01-13T10:56:24.862Z,14.50
2023-01-13T10:58:51.625Z,14.23
2023-01-13T11:01:27.800Z,13.57
2023-01-13T11:03:56.029Z,14.00
2023-01-13T11:06:30.673Z,13.80
2023-01-13T11:08:58.477Z,14.10
2023-01-13T11:11:43.113Z,13.40
2023-01-13T11:14:39.434Z,13.50
2023-01-13T11:18:00.498Z,13.87
2023-01-13T11:20:50.234Z,13.70
2023-01-13T11:23:37.994Z,13.70
2023-01-13T11:26:12.554Z,13.77
2023-01-13T11:29:03.934Z,13.10
2023-01-13T11:31:36.932Z,13.50
2023-01-13T11:34:15.725Z,13.70
2023-01-13T11:36:51.061Z,13.23
2023-01-13T11:39:39.739Z,13.30
2023-01-13T11:42:44.909Z,13.67
2023-01-13T11:45:37.283Z,13.80
2023-01-13T11:48:04.882Z,13.83
2023-01-13T11:50:45.329Z,13.77
2023-01-13T11:53:17.673Z,13.70
2023-01-13T11:56:09.814Z,13.23
2023-01-13T11:58:58.443Z,13.87
2023-01-13T12:02:00.470Z,13.90
2023-01-13T12:04:36.238Z,13.60
2023-01-13T12:07:41.831Z,13.83
2023-01-13T12:10:24.109Z,13.97
2023-01-13T12:13:00.307Z,13.33
2023-01-13T12:18:37.642Z,13.30
2023-01-13T12:21:22.807Z,13.00
2023-01-13T12:23:58.242Z,13.87
2023-01-13T12:26:26.119Z,13.80
2023-01-13T12:29:01.991Z,13.77
2023-01-13T12:31:30.243Z,13.97
2023-01-13T12:34:30.302Z,14.13
2023-01-13T12:37:06.088Z,14.40
2023-01-13T12:39:44.519Z,14.20
2023-01-13T12:42:48.992Z,13.87
2023-01-13T12:45:17.344Z,13.50
2023-01-13T12:47:48.752Z,14.00
2023-01-13T12:50:24.850Z,14.03
2023-01-13T12:53:11.189Z,14.20
2023-01-13T12:55:37.842Z,14.13
2023-01-13T12:58:10.651Z,14.20
2023-01-13T13:00:40.468Z,13.10
2023-01-13T13:03:18.585Z,12.97
2023-01-13T13:06:07.157Z,11.97
2023-01-13T13:08:45.408Z,12.73
2023-01-13T13:11:33.594Z,12.80
2023-01-13T13:14:01.808Z,12.70
2023-01-13T13:16:31.555Z,12.90
2023-01-13T13:19:20.286Z,12.80
2023-01-13T13:22:13.496Z,13.50
2023-01-13T13:24:41.603Z,13.67
2023-01-13T13:27:30.265Z,13.30
2023-01-13T13:30:00.579Z,14.23
2023-01-13T13:33:01.170Z,13.20
2023-01-13T13:35:52.213Z,13.60
2023-01-13T13:39:02.951Z,13.20
2023-01-13T13:41:48.984Z,13.43
2023-01-13T13:44:40.113Z,13.20
2023-01-13T13:47:07.818Z,12.40
2023-01-13T13:49:49.013Z,13.40
2023-01-13T13:52:20.963Z,13.30
2023-01-13T13:54:52.963Z,13.83
2023-01-13T13:57:39.559Z,13.67
2023-01-13T14:00:19.080Z,13.60
2023-01-13T14:02:52.602Z,13.53
2023-01-13T14:05:23.828Z,13.20
2023-01-13T14:08:15.619Z,13.40
2023-01-13T14:10:47.611Z,13.87
2023-01-13T14:13:28.060Z,13.30
2023-01-13T14:15:59.094Z,13.63
2023-01-13T14:18:27.716Z,13.07
2023-01-13T14:21:05.483Z,13.70
2023-01-13T14:23:34.470Z,14.30
2023-01-13T14:26:06.667Z,13.27
2023-01-13T14:28:38.335Z,13.80
2023-01-13T14:31:08.054Z,13.70
2023-01-13T14:33:56.952Z,13.50
2023-01-13T14:36:37.780Z,13.90
2023-01-13T14:39:04.370Z,13.53
2023-01-13T14:41:35.958Z,13.70
2023-01-13T14:44:27.642Z,14.30
2023-01-13T14:46:57.187Z,14.13
2023-01-13T14:49:41.330Z,13.50
2023-01-13T14:52:22.976Z,13.57
2023-01-13T14:54:52.171Z,13.43
2023-01-13T14:57:32.407Z,13.30
2023-01-13T15:00:14.311Z,12.90
2023-01-13T15:02:46.749Z,13.40
2023-01-13T15:05:19.588Z,13.17
2023-01-13T15:08:11.585Z,13.70
2023-01-13T15:10:49.397Z,13.77
2023-01-13T15:13:37.465Z,13.43
2023-01-13T15:16:20.459Z,13.30
2023-01-13T15:18:47.263Z,13.80
2023-01-13T15:21:15.742Z,13.60
2023-01-13T15:23:43.017Z,13.67
2023-01-13T15:26:28.378Z,13.70
2023-01-13T15:28:57.632Z,14.53
2023-01-13T15:31:25.921Z,13.60
2023-01-13T15:33:52.766Z,13.17
2023-01-13T15:36:29.209Z,12.93
2023-01-13T15:38:56.974Z,12.77
2023-01-13T15:41:47.673Z,12.60
2023-01-13T15:44:34.844Z,12.67
2023-01-13T15:47:09.555Z,12.57
2023-01-13T15:49:40.398Z,12.10
2023-01-13T15:52:33.229Z,12.60
2023-01-13T15:54:59.849Z,11.83
2023-01-13T15:57:30.264Z,12.30
2023-01-13T16:00:00.481Z,11.67
2023-01-13T16:02:27.507Z,11.57
2023-01-13T16:04:54.799Z,11.60
2023-01-13T16:07:23.642Z,11.43
2023-01-13T16:09:50.486Z,12.53
2023-01-13T16:12:17.289Z,12.07
2023-01-13T16:14:44.003Z,11.03
2023-01-13T16:17:19.037Z,11.10
2023-01-13T16:19:46.384Z,11.70
2023-01-13T16:22:14.777Z,12.70
2023-01-13T16:24:42.244Z,11.63
2023-01-13T16:27:18.506Z,12.00
2023-01-13T16:29:45.543Z,11.83
2023-01-13T16:32:12.358Z,11.83
2023-01-13T16:34:39.257Z,11.77
2023-01-13T16:37:32.364Z,11.40
2023-01-13T16:39:59.099Z,11.47
2023-01-13T16:42:25.899Z,12.73
2023-01-13T16:44:52.928Z,11.83
2023-01-13T16:47:20.018Z,12.27
2023-01-13T16:49:46.903Z,12.20
2023-01-13T16:52:13.637Z,13.10
2023-01-13T16:54:40.317Z,11.80
2023-01-13T16:57:07.829Z,12.00
2023-01-13T16:59:34.659Z,11.97
2023-01-13T17:02:02.108Z,12.83
2023-01-13T17:04:28.995Z,12.17
2023-01-13T17:07:03.211Z,12.70
2023-01-13T17:09:30.158Z,12.00
2023-01-13T17:11:56.872Z,12.23
2023-01-13T17:14:24.728Z,12.40
2023-01-13T17:16:58.674Z,13.03
2023-01-13T17:19:25.820Z,12.60
2023-01-13T17:21:52.692Z,12.90
2023-01-13T17:24:19.801Z,13.40
2023-01-13T17:26:49.313Z,12.50
2023-01-13T17:29:22.400Z,12.80
2023-01-13T17:31:52.466Z,12.03
2023-01-13T17:34:20.060Z,12.00
2023-01-13T17:36:46.907Z,12.63
2023-01-13T17:39:17.432Z,11.90
2023-01-13T17:41:45.073Z,11.60
2023-01-13T17:44:17.472Z,12.33
2023-01-13T17:46:44.902Z,11.93
2023-01-13T17:49:12.922Z,11.53
2023-01-13T17:51:41.432Z,11.60
2023-01-13T17:54:12.133Z,11.80
2023-01-13T17:56:40.936Z,11.93
2023-01-13T17:59:10.309Z,10.93
2023-01-13T18:01:38.514Z,11.60
2023-01-13T18:04:06.838Z,11.67
2023-01-13T18:06:33.893Z,11.30
2023-01-13T18:09:00.760Z,11.90
2023-01-13T18:11:27.890Z,11.60
2023-01-13T18:13:57.074Z,11.23
2023-01-13T18:16:25.602Z,11.70
2023-01-13T18:19:15.079Z,12.30
2023-01-13T18:22:00.827Z,11.73
2023-01-13T18:24:46.035Z,12.17
2023-01-13T18:27:19.890Z,12.03
2023-01-13T18:29:46.923Z,15.97
2023-01-13T18:32:14.009Z,12.20
2023-01-13T18:34:41.488Z,11.47
2023-01-13T18:37:10.609Z,11.50
2023-01-13T18:39:37.580Z,12.00
2023-01-13T18:42:24.657Z,11.73
2023-01-13T18:44:52.546Z,11.40
2023-01-13T18:47:19.249Z,12.10
2023-01-13T18:49:46.558Z,11.20
2023-01-13T18:52:13.734Z,11.87
2023-01-13T18:54:40.380Z,11.80
2023-01-13T18:57:07.311Z,11.00
2023-01-13T18:59:34.722Z,11.50
2023-01-13T19:02:02.641Z,11.50
2023-01-13T19:04:29.518Z,11.23
2023-01-13T19:07:00.777Z,11.50
2023-01-13T19:09:29.228Z,11.07
2023-01-13T19:11:57.301Z,10.03
2023-01-13T19:14:34.293Z,11.20
2023-01-13T19:17:09.283Z,11.23
2023-01-13T19:19:44.283Z,11.67
2023-01-13T19:22:12.934Z,11.70
2023-01-13T19:24:42.771Z,11.50
2023-01-13T19:27:11.020Z,10.67
2023-01-13T19:29:37.785Z,12.67
2023-01-13T19:32:19.416Z,11.80
2023-01-13T19:34:47.742Z,11.90
2023-01-13T19:37:14.643Z,11.60
2023-01-13T19:39:41.369Z,11.80
2023-01-13T19:42:26.406Z,11.77
2023-01-13T19:45:22.346Z,11.33
2023-01-13T19:47:48.984Z,11.33
2023-01-13T19:50:16.140Z,11.17
2023-01-13T19:52:43.113Z,11.40
2023-01-13T19:55:11.869Z,11.10
2023-01-13T19:57:41.544Z,11.67
2023-01-13T20:00:09.908Z,11.47
2023-01-13T20:02:37.012Z,11.00
2023-01-13T20:05:06.467Z,11.20
2023-01-13T20:07:34.962Z,11.17
2023-01-13T20:10:01.841Z,12.13
2023-01-13T20:12:29.478Z,11.27
2023-01-13T20:14:56.678Z,11.53
2023-01-13T20:17:25.452Z,10.87
2023-01-13T20:19:52.311Z,10.73
2023-01-13T20:22:19.049Z,11.90
2023-01-13T20:24:45.727Z,10.70
2023-01-13T20:27:12.441Z,10.60
2023-01-13T20:29:39.411Z,11.23
2023-01-13T20:32:06.045Z,10.33
2023-01-13T20:34:32.728Z,10.80
2023-01-13T20:37:00.217Z,10.57
2023-01-13T20:39:26.953Z,11.23
2023-01-13T20:42:13.227Z,11.30
2023-01-13T20:44:40.609Z,11.97
2023-01-13T20:47:07.690Z,10.50
2023-01-13T20:49:36.099Z,10.60
2023-01-13T20:52:09.086Z,11.47
2023-01-13T20:54:40.381Z,11.63
2023-01-13T20:57:09.741Z,10.70
2023-01-13T20:59:37.593Z,11.17
2023-01-13T21:02:06.007Z,11.80
2023-01-13T21:04:32.679Z,11.40
2023-01-13T21:06:59.304Z,11.63
2023-01-13T21:09:27.231Z,11.47
2023-01-13T21:12:12.548Z,11.63
2023-01-13T21:14:57.995Z,11.80
2023-01-13T21:17:43.525Z,11.30
2023-01-13T21:20:13.143Z,11.43
2023-01-13T21:22:40.709Z,10.37
2023-01-13T21:25:07.983Z,10.47
2023-01-13T21:27:34.751Z,10.97
2023-01-13T21:30:01.463Z,11.03
2023-01-13T21:32:28.503Z,10.60
2023-01-13T21:34:55.229Z,11.43
2023-01-13T21:37:22.237Z,10.57
2023-01-13T21:39:49.203Z,10.80
2023-01-13T21:42:35.642Z,10.97
2023-01-13T21:45:21.656Z,11.60
2023-01-13T21:47:48.638Z,10.93
2023-01-13T21:50:28.662Z,11.63
2023-01-13T21:52:57.168Z,10.40
2023-01-13T21:55:28.123Z,10.93
2023-01-13T21:58:09.877Z,11.03
2023-01-13T22:00:36.554Z,10.10
2023-01-13T22:03:04.314Z,10.83
2023-01-13T22:05:31.518Z,10.70
2023-01-13T22:07:58.376Z,10.60
2023-01-13T22:10:27.540Z,10.70
2023-01-13T22:13:24.920Z,10.83
2023-01-13T22:15:51.636Z,10.60
2023-01-13T22:18:18.448Z,10.87
2023-01-13T22:20:45.740Z,10.40
2023-01-13T22:23:12.503Z,10.47
2023-01-13T22:25:39.380Z,10.47
2023-01-13T22:28:08.960Z,9.87
2023-01-13T22:30:35.716Z,9.87
2023-01-13T22:33:02.394Z,11.60
2023-01-13T22:35:29.035Z,9.90
2023-01-13T22:37:55.751Z,10.50
2023-01-13T22:40:22.473Z,11.20
2023-01-13T22:42:49.195Z,9.80
2023-01-13T22:45:15.976Z,10.13
2023-01-13T22:47:42.725Z,10.63
2023-01-13T22:50:10.126Z,10.37
2023-01-13T22:52:36.879Z,10.33
2023-01-13T22:55:04.297Z,11.13
2023-01-13T22:57:36.079Z,10.40
2023-01-13T23:00:10.251Z,10.70
2023-01-13T23:02:38.403Z,10.33
2023-01-13T23:05:05.492Z,10.33
2023-01-13T23:07:32.207Z,11.00
2023-01-13T23:09:58.928Z,10.53
2023-01-13T23:12:25.575Z,11.93
2023-01-13T23:14:52.410Z,10.07
2023-01-13T23:17:19.132Z,11.07
2023-01-13T23:19:45.771Z,10.43
2023-01-13T23:22:13.401Z,10.10
2023-01-13T23:24:40.067Z,11.00
2023-01-13T23:27:06.837Z,10.00
2023-01-13T23:29:33.466Z,10.40
2023-01-13T23:32:00.166Z,9.80
2023-01-13T23:34:26.837Z,11.37
2023-01-13T23:36:53.515Z,10.40
2023-01-13T23:39:20.232Z,10.80
2023-01-13T23:41:46.892Z,10.43
2023-01-13T23:44:13.585Z,9.87
2023-01-13T23:46:40.314Z,10.00
2023-01-13T23:49:07.123Z,9.83
2023-01-13T23:51:33.978Z,11.10
2023-01-13T23:54:00.765Z,10.33
2023-01-13T23:56:30.269Z,10.13
2023-01-13T23:58:57.368Z,10.33
